createdAt,value
2023-04-02T00:01:23.982Z,100985.25
2023-04-02T00:04:04.367Z,100988.78
2023-04-02T00:06:40.961Z,100992.59
2023-04-02T00:09:18.852Z,100992.22
2023-04-02T00:11:51.698Z,100991.00
2023-04-02T00:14:36.533Z,100990.22
2023-04-02T00:17:07.549Z,100993.09
2023-04-02T00:20:08.892Z,100993.88
2023-04-02T00:22:45.507Z,100994.50
2023-04-02T00:25:16.383Z,100999.16
2023-04-02T00:27:47.214Z,100992.63
2023-04-02T00:30:18.216Z,101001.06
2023-04-02T00:32:49.837Z,101001.56
2023-04-02T00:35:28.294Z,101007.88
2023-04-02T00:37:59.139Z,100990.69
2023-04-02T00:40:32.148Z,100997.16
2023-04-02T00:43:04.471Z,101003.06
2023-04-02T00:45:38.575Z,101013.09
2023-04-02T00:48:33.625Z,101003.16
2023-04-02T00:51:59.169Z,101000.69
2023-04-02T00:54:34.132Z,101005.50
2023-04-02T00:57:04.725Z,101000.16
2023-04-02T00:59:38.591Z,100997.91
2023-04-02T01:02:19.382Z,100995.59
2023-04-02T01:05:18.641Z,100986.28
2023-04-02T01:07:58.312Z,100989.16
2023-04-02T01:11:04.439Z,100987.53
2023-04-02T01:13:41.443Z,100977.94
2023-04-02T01:16:26.094Z,100971.91
2023-04-02T01:19:46.673Z,100976.53
2023-04-02T01:22:24.260Z,100966.31
2023-04-02T01:24:59.160Z,100957.16
2023-04-02T01:27:53.909Z,100955.94
2023-04-02T01:30:30.435Z,100953.00
2023-04-02T01:33:04.067Z,100959.69
2023-04-02T01:35:38.977Z,100952.22
2023-04-02T01:38:23.480Z,100952.66
2023-04-02T01:41:22.938Z,100948.09
2023-04-02T01:44:13.865Z,100951.84
2023-04-02T01:46:45.701Z,100951.41
2023-04-02T01:49:22.108Z,100950.56
2023-04-02T01:51:57.733Z,100944.31
2023-04-02T01:54:31.773Z,100936.34
2023-04-02T01:57:02.666Z,100933.47
2023-04-02T01:59:34.246Z,100929.53
2023-04-02T02:02:14.625Z,100931.41
2023-04-02T02:04:46.872Z,100922.03
2023-04-02T02:07:21.542Z,100931.44
2023-04-02T02:09:58.347Z,100918.06
2023-04-02T02:12:29.393Z,100914.16
2023-04-02T02:15:03.411Z,100919.38
2023-04-02T02:17:35.456Z,100921.44
2023-04-02T02:20:12.369Z,100917.91
2023-04-02T02:22:50.502Z,100915.59
2023-04-02T02:25:27.314Z,100924.97
2023-04-02T02:28:29.685Z,100916.00
2023-04-02T02:31:13.873Z,100916.44
2023-04-02T02:33:48.716Z,100907.44
2023-04-02T02:36:50.138Z,100904.13
2023-04-02T02:39:37.066Z,100904.31
2023-04-02T02:42:25.980Z,100900.56
2023-04-02T02:44:58.441Z,100901.81
2023-04-02T02:47:36.216Z,100901.78
2023-04-02T02:50:11.328Z,100891.97
2023-04-02T02:52:48.300Z,100885.91
2023-04-02T02:55:45.146Z,100883.59
2023-04-02T02:58:31.109Z,100874.59
2023-04-02T03:01:24.905Z,100876.50
2023-04-02T03:03:57.853Z,100870.03
2023-04-02T03:06:29.502Z,100868.75
2023-04-02T03:09:38.613Z,100866.84
2023-04-02T03:12:23.567Z,100861.97
2023-04-02T03:15:16.472Z,100854.25
2023-04-02T03:17:55.437Z,100850.47
2023-04-02T03:20:50.497Z,100862.56
2023-04-02T03:23:31.180Z,100850.66
2023-04-02T03:26:54.042Z,100847.91
2023-04-02T03:29:28.691Z,100841.44
2023-04-02T03:32:09.624Z,100845.19
2023-04-02T03:34:54.243Z,100834.69
2023-04-02T03:37:33.779Z,100836.97
2023-04-02T03:40:17.304Z,100822.28
2023-04-02T03:42:50.946Z,100824.56
2023-04-02T03:45:25.544Z,100816.16
2023-04-02T03:48:12.740Z,100814.44
2023-04-02T03:50:50.274Z,100803.50
2023-04-02T03:53:26.149Z,100802.28
2023-04-02T03:55:57.879Z,100798.72
2023-04-02T03:58:34.317Z,100793.06
2023-04-02T04:01:35.570Z,100786.66
2023-04-02T04:04:15.507Z,100785.63
2023-04-02T04:06:48.053Z,100790.00
2023-04-02T04:09:37.314Z,100784.56
2023-04-02T04:12:23.920Z,100772.47
2023-04-02T04:15:10.677Z,100773.34
2023-04-02T04:17:52.305Z,100765.03
2023-04-02T04:20:34.816Z,100757.47
2023-04-02T04:23:30.904Z,100746.16
2023-04-02T04:26:12.594Z,100755.38
2023-04-02T04:28:48.965Z,100743.91
2023-04-02T04:31:39.973Z,100736.38
2023-04-02T04:34:43.297Z,100733.34
2023-04-02T04:37:34.430Z,100722.78
2023-04-02T04:40:26.030Z,100715.56
2023-04-02T04:43:07.872Z,100707.09
2023-04-02T04:46:02.489Z,100706.91
2023-04-02T04:48:40.338Z,100712.28
2023-04-02T04:51:22.081Z,100696.66
2023-04-02T04:53:56.054Z,100682.97
2023-04-02T04:56:31.766Z,100677.13
2023-04-02T04:59:36.352Z,100669.97
2023-04-02T05:02:20.791Z,100673.91
2023-04-02T05:04:53.687Z,100670.97
2023-04-02T05:07:39.619Z,100668.75
2023-04-02T05:10:32.256Z,100659.06
2023-04-02T05:13:09.295Z,100651.88
2023-04-02T05:16:01.192Z,100649.44
2023-04-02T05:18:54.110Z,100640.94
2023-04-02T05:21:36.653Z,100636.13
2023-04-02T05:24:29.483Z,100632.91
2023-04-02T05:27:06.806Z,100618.13
2023-04-02T05:29:40.868Z,100620.84
2023-04-02T05:32:18.791Z,100619.88
2023-04-02T05:34:52.577Z,100612.97
2023-04-02T05:37:26.106Z,100606.22
2023-04-02T05:40:07.628Z,100597.84
2023-04-02T05:42:38.979Z,100599.50
2023-04-02T05:45:33.816Z,100595.28
2023-04-02T05:48:20.291Z,100585.22
2023-04-02T05:50:55.915Z,100575.38
2023-04-02T05:53:42.661Z,100580.22
2023-04-02T05:56:45.988Z,100569.94
2023-04-02T05:59:36.097Z,100575.84
2023-04-02T06:02:09.113Z,100567.09
2023-04-02T06:04:58.156Z,100573.25
2023-04-02T06:07:47.955Z,100569.41
2023-04-02T06:10:26.735Z,100562.78
2023-04-02T06:13:05.009Z,100560.63
2023-04-02T06:15:42.740Z,100560.84
2023-04-02T06:18:21.748Z,100540.28
2023-04-02T06:20:55.119Z,100539.44
2023-04-02T06:23:45.614Z,100531.06
2023-04-02T06:26:41.341Z,100532.25
2023-04-02T06:29:40.826Z,100526.81
2023-04-02T06:32:20.975Z,100528.09
2023-04-02T06:34:52.165Z,100526.19
2023-04-02T06:37:37.207Z,100524.41
2023-04-02T06:40:41.088Z,100517.91
2023-04-02T06:43:47.066Z,100505.38
2023-04-02T06:47:26.373Z,100508.44
2023-04-02T06:50:03.017Z,100503.84
2023-04-02T06:52:46.371Z,100498.38
2023-04-02T06:55:35.157Z,100510.09
2023-04-02T06:58:11.101Z,100507.16
2023-04-02T07:00:47.013Z,100512.00
2023-04-02T07:03:29.814Z,100509.88
2023-04-02T07:06:04.547Z,100513.06
2023-04-02T07:08:37.500Z,100508.09
2023-04-02T07:11:08.411Z,100509.03
2023-04-02T07:13:38.850Z,100504.97
2023-04-02T07:16:16.770Z,100501.19
2023-04-02T07:18:48.385Z,100509.34
2023-04-02T07:21:19.641Z,100508.28
2023-04-02T07:23:53.123Z,100502.38
2023-04-02T07:26:28.204Z,100495.75
2023-04-02T07:28:59.052Z,100498.94
2023-04-02T07:31:30.684Z,100498.69
2023-04-02T07:34:02.517Z,100492.44
2023-04-02T07:36:35.793Z,100491.13
2023-04-02T07:39:07.446Z,100488.66
2023-04-02T07:41:53.353Z,100490.31
2023-04-02T07:44:24.059Z,100492.03
2023-04-02T07:46:54.965Z,100484.59
2023-04-02T07:49:26.221Z,100489.78
2023-04-02T07:51:57.706Z,100488.34
2023-04-02T07:54:29.241Z,100492.28
2023-04-02T07:57:00.067Z,100498.19
2023-04-02T07:59:30.769Z,100498.94
2023-04-02T08:02:01.669Z,100498.34
2023-04-02T08:04:32.309Z,100491.84
2023-04-02T08:07:03.165Z,100484.47
2023-04-02T08:09:34.164Z,100498.34
2023-04-02T08:12:05.300Z,100495.38
2023-04-02T08:14:36.016Z,100495.38
2023-04-02T08:17:06.937Z,100494.56
2023-04-02T08:19:48.161Z,100495.97
2023-04-02T08:22:25.325Z,100496.22
2023-04-02T08:24:55.980Z,100493.94
2023-04-02T08:27:27.374Z,100498.78
2023-04-02T08:29:58.320Z,100491.22
2023-04-02T08:32:30.082Z,100490.03
2023-04-02T08:35:00.569Z,100499.22
2023-04-02T08:37:31.473Z,100500.47
2023-04-02T08:40:04.782Z,100516.19
2023-04-02T08:42:41.966Z,100497.94
2023-04-02T08:45:39.934Z,100507.41
2023-04-02T08:48:14.111Z,100491.75
2023-04-02T08:50:45.433Z,100507.72
2023-04-02T08:53:22.694Z,100507.13
2023-04-02T08:56:09.483Z,100509.84
2023-04-02T08:58:54.870Z,100500.47
2023-04-02T09:01:28.279Z,100511.69
2023-04-02T09:04:00.669Z,100513.81
2023-04-02T09:06:32.530Z,100506.25
2023-04-02T09:09:13.788Z,100503.78
2023-04-02T09:11:48.661Z,100498.53
2023-04-02T09:14:35.835Z,100510.88
2023-04-02T09:17:17.010Z,100510.94
2023-04-02T09:19:55.939Z,100505.97
2023-04-02T09:22:28.826Z,100501.44
2023-04-02T09:25:01.959Z,100511.25
2023-04-02T09:27:35.155Z,100512.56
2023-04-02T09:30:34.856Z,100515.28
2023-04-02T09:33:10.113Z,100518.47
2023-04-02T09:35:52.809Z,100533.72
2023-04-02T09:38:32.477Z,100537.53
2023-04-02T09:41:20.206Z,100532.53
2023-04-02T09:43:51.496Z,100536.75
2023-04-02T09:46:27.018Z,100535.72
2023-04-02T09:49:04.634Z,100537.38
2023-04-02T09:51:37.497Z,100543.25
2023-04-02T09:54:17.315Z,100540.53
2023-04-02T09:57:06.767Z,100543.72
2023-04-02T09:59:38.417Z,100545.22
2023-04-02T10:02:30.625Z,100548.09
2023-04-02T10:05:06.843Z,100560.31
2023-04-02T10:07:47.610Z,100558.66
2023-04-02T10:10:21.031Z,100568.03
2023-04-02T10:13:07.717Z,100574.97
2023-04-02T10:16:05.000Z,100579.81
2023-04-02T10:18:53.689Z,100587.31
2023-04-02T10:21:38.986Z,100590.88
2023-04-02T10:24:17.610Z,100587.97
2023-04-02T10:27:00.013Z,100592.34
2023-04-02T10:30:06.226Z,100601.72
2023-04-02T10:33:01.750Z,100597.81
2023-04-02T10:35:49.564Z,100611.41
2023-04-02T10:38:31.833Z,100616.91
2023-04-02T10:41:24.693Z,100621.28
2023-04-02T10:44:16.706Z,100633.19
2023-04-02T10:47:11.308Z,100632.81
2023-04-02T10:50:20.643Z,100635.13
2023-04-02T10:52:59.673Z,100631.97
2023-04-02T10:55:33.950Z,100637.00
2023-04-02T10:58:09.313Z,100636.38
2023-04-02T11:00:42.011Z,100645.41
2023-04-02T11:03:20.429Z,100641.19
2023-04-02T11:05:57.127Z,100643.31
2023-04-02T11:08:41.143Z,100646.44
2023-04-02T11:11:22.410Z,100646.28
2023-04-02T11:14:05.024Z,100650.84
2023-04-02T11:16:37.293Z,100664.84
2023-04-02T11:19:17.146Z,100680.94
2023-04-02T11:22:27.261Z,100705.78
2023-04-02T11:24:59.009Z,100699.53
2023-04-02T11:27:31.804Z,100717.06
2023-04-02T11:30:21.568Z,100714.16
2023-04-02T11:32:52.550Z,100728.97
2023-04-02T11:35:37.043Z,100730.25
2023-04-02T11:38:12.300Z,100724.41
2023-04-02T11:40:45.899Z,100731.97
2023-04-02T11:43:35.017Z,100731.94
2023-04-02T11:46:17.836Z,100732.38
2023-04-02T11:48:48.304Z,100727.38
2023-04-02T11:51:24.890Z,100718.44
2023-04-02T11:53:59.336Z,100723.66
2023-04-02T11:56:47.349Z,100729.31
2023-04-02T11:59:50.342Z,100736.59
2023-04-02T12:02:50.831Z,100748.28
2023-04-02T12:05:28.984Z,100749.13
2023-04-02T12:07:59.365Z,100757.06
2023-04-02T12:10:33.906Z,100758.50
2023-04-02T12:13:04.321Z,100767.47
2023-04-02T12:15:40.588Z,100776.22
2023-04-02T12:18:24.543Z,100782.88
2023-04-02T12:20:57.689Z,100794.34
2023-04-02T12:23:32.271Z,100800.38
2023-04-02T12:26:09.897Z,100803.09
2023-04-02T12:28:43.240Z,100802.06
2023-04-02T12:31:17.561Z,100815.00
2023-04-02T12:33:48.224Z,100809.56
2023-04-02T12:36:22.496Z,100797.06
2023-04-02T12:38:58.444Z,100796.25
2023-04-02T12:41:32.887Z,100810.44
2023-04-02T12:44:07.649Z,100812.28
2023-04-02T12:46:39.676Z,100808.34
2023-04-02T12:49:27.005Z,100817.94
2023-04-02T12:51:58.383Z,100818.78
2023-04-02T12:54:37.694Z,100819.19
2023-04-02T12:57:32.469Z,100824.22
2023-04-02T13:00:22.009Z,100828.78
2023-04-02T13:02:55.573Z,100831.72
2023-04-02T13:05:43.666Z,100833.59
2023-04-02T13:08:31.627Z,100832.97
2023-04-02T13:11:04.457Z,100831.28
2023-04-02T13:13:39.961Z,100832.13
2023-04-02T13:16:22.462Z,100827.75
2023-04-02T13:18:53.843Z,100832.75
2023-04-02T13:21:28.755Z,100828.13
2023-04-02T13:23:59.927Z,100829.97
2023-04-02T13:26:31.564Z,100845.44
2023-04-02T13:29:10.751Z,100847.50
2023-04-02T13:31:41.422Z,100844.16
2023-04-02T13:34:12.368Z,100838.75
2023-04-02T13:36:42.634Z,100852.50
2023-04-02T13:39:14.401Z,100859.81
2023-04-02T13:41:59.771Z,100854.78
2023-04-02T13:44:35.893Z,100853.13
2023-04-02T13:47:06.512Z,100854.16
2023-04-02T13:49:45.039Z,100856.66
2023-04-02T13:52:18.438Z,100865.00
2023-04-02T13:54:51.791Z,100867.91
2023-04-02T13:57:22.480Z,100864.16
2023-04-02T13:59:53.183Z,100864.16
2023-04-02T14:02:26.194Z,100873.72
2023-04-02T14:05:30.134Z,100867.09
2023-04-02T14:08:13.175Z,100864.34
2023-04-02T14:10:53.139Z,100872.28
2023-04-02T14:13:38.721Z,100871.66
2023-04-02T14:16:20.883Z,100851.66
2023-04-02T14:19:07.184Z,100859.59
2023-04-02T14:22:02.190Z,100861.06
2023-04-02T14:25:12.953Z,100869.22
2023-04-02T14:28:24.520Z,100870.06
2023-04-02T14:31:00.430Z,100868.78
2023-04-02T14:34:09.808Z,100870.06
2023-04-02T14:36:58.564Z,100875.25
2023-04-02T14:39:38.729Z,100879.19
2023-04-02T14:42:19.253Z,100870.22
2023-04-02T14:45:08.274Z,100857.09
2023-04-02T14:48:02.260Z,100867.09
2023-04-02T14:50:39.926Z,100870.44
2023-04-02T14:53:40.398Z,100871.69
2023-04-02T14:56:13.405Z,100864.38
2023-04-02T14:58:52.812Z,100850.81
2023-04-02T15:01:29.129Z,100863.72
2023-04-02T15:04:14.413Z,100860.00
2023-04-02T15:06:49.661Z,100857.06
2023-04-02T15:09:30.315Z,100860.00
2023-04-02T15:12:26.137Z,100856.22
2023-04-02T15:15:15.354Z,100858.75
2023-04-02T15:17:46.128Z,100854.34
2023-04-02T15:20:18.580Z,100862.91
2023-04-02T15:22:59.017Z,100857.06
2023-04-02T15:25:50.767Z,100861.63
2023-04-02T15:28:24.104Z,100852.06
2023-04-02T15:31:01.239Z,100858.72
2023-04-02T15:33:55.889Z,100854.13
2023-04-02T15:36:36.357Z,100858.28
2023-04-02T15:39:24.867Z,100859.53
2023-04-02T15:42:20.364Z,100852.25
2023-04-02T15:45:09.720Z,100844.13
2023-04-02T15:47:49.404Z,100841.19
2023-04-02T15:50:39.465Z,100832.25
2023-04-02T15:53:23.184Z,100834.09
2023-04-02T15:56:16.176Z,100829.09
2023-04-02T15:58:52.695Z,100823.25
2023-04-02T16:01:32.492Z,100819.50
2023-04-02T16:04:22.170Z,100815.94
2023-04-02T16:07:49.149Z,100824.53
2023-04-02T16:10:40.183Z,100816.72
2023-04-02T16:13:30.565Z,100813.00
2023-04-02T16:16:06.474Z,100806.53
2023-04-02T16:19:04.661Z,100811.09
2023-04-02T16:21:40.314Z,100803.16
2023-04-02T16:24:14.484Z,100809.81
2023-04-02T16:27:01.557Z,100800.25
2023-04-02T16:29:47.110Z,100800.66
2023-04-02T16:32:24.320Z,100798.53
2023-04-02T16:35:01.961Z,100797.50
2023-04-02T16:38:21.419Z,100795.66
2023-04-02T16:41:11.014Z,100795.41
2023-04-02T16:44:07.093Z,100786.91
2023-04-02T16:46:58.903Z,100779.38
2023-04-02T16:49:53.912Z,100771.00
2023-04-02T16:52:31.649Z,100771.88
2023-04-02T16:55:14.401Z,100769.34
2023-04-02T16:58:09.020Z,100767.69
2023-04-02T17:00:47.646Z,100763.31
2023-04-02T17:03:42.758Z,100754.13
2023-04-02T17:06:37.245Z,100752.69
2023-04-02T17:09:27.157Z,100751.22
2023-04-02T17:12:12.954Z,100749.13
2023-04-02T17:15:00.830Z,100747.25
2023-04-02T17:17:31.716Z,100748.50
2023-04-02T17:20:11.429Z,100745.34
2023-04-02T17:22:41.893Z,100739.09
2023-04-02T17:25:20.931Z,100739.31
2023-04-02T17:27:55.656Z,100731.19
2023-04-02T17:30:48.142Z,100720.38
2023-04-02T17:33:20.370Z,100720.53
2023-04-02T17:35:56.413Z,100714.72
2023-04-02T17:38:37.537Z,100716.38
2023-04-02T17:41:19.681Z,100713.03
2023-04-02T17:44:12.716Z,100714.72
2023-04-02T17:46:46.643Z,100714.91
2023-04-02T17:49:38.379Z,100719.25
2023-04-02T17:52:38.061Z,100724.91
2023-04-02T17:55:11.259Z,100715.91
2023-04-02T17:57:51.224Z,100726.53
2023-04-02T18:00:27.077Z,100725.47
2023-04-02T18:03:02.676Z,100729.22
2023-04-02T18:05:52.084Z,100724.63
2023-04-02T18:08:26.483Z,100715.88
2023-04-02T18:11:35.761Z,100706.94
2023-04-02T18:14:19.940Z,100707.97
2023-04-02T18:17:08.958Z,100710.44
2023-04-02T18:20:21.677Z,100713.78
2023-04-02T18:23:13.378Z,100713.16
2023-04-02T18:25:57.591Z,100718.97
2023-04-02T18:29:03.363Z,100717.53
2023-04-02T18:32:05.399Z,100711.25
2023-04-02T18:34:45.956Z,100702.09
2023-04-02T18:37:34.693Z,100700.84
2023-04-02T18:40:22.658Z,100688.53
2023-04-02T18:43:24.177Z,100689.38
2023-04-02T18:46:15.848Z,100689.97
2023-04-02T18:49:20.986Z,100685.41
2023-04-02T18:51:56.102Z,100691.41
2023-04-02T18:54:34.994Z,100689.31
2023-04-02T18:57:19.298Z,100686.22
2023-04-02T19:00:05.528Z,100687.88
2023-04-02T19:03:08.162Z,100695.78
2023-04-02T19:05:46.262Z,100692.84
2023-04-02T19:08:24.733Z,100698.25
2023-04-02T19:10:59.532Z,100697.44
2023-04-02T19:13:30.076Z,100702.84
2023-04-02T19:16:18.909Z,100702.34
2023-04-02T19:19:01.245Z,100706.94
2023-04-02T19:22:01.328Z,100704.22
2023-04-02T19:24:37.836Z,100702.31
2023-04-02T19:27:39.321Z,100702.97
2023-04-02T19:30:49.955Z,100704.00
2023-04-02T19:33:42.484Z,100703.13
2023-04-02T19:36:19.973Z,100710.19
2023-04-02T19:39:05.179Z,100701.44
2023-04-02T19:41:49.063Z,100696.03
2023-04-02T19:44:19.750Z,100705.19
2023-04-02T19:46:52.301Z,100710.97
2023-04-02T19:49:34.925Z,100708.09
2023-04-02T19:52:06.205Z,100706.38
2023-04-02T19:54:38.212Z,100714.47
2023-04-02T19:57:08.641Z,100712.63
2023-04-02T19:59:39.000Z,100713.19
2023-04-02T20:02:11.395Z,100712.16
2023-04-02T20:04:43.420Z,100709.84
2023-04-02T20:07:13.873Z,100708.81
2023-04-02T20:09:44.286Z,100712.16
2023-04-02T20:12:15.181Z,100710.50
2023-04-02T20:14:45.829Z,100715.09
2023-04-02T20:17:16.956Z,100722.72
2023-04-02T20:19:47.343Z,100715.66
2023-04-02T20:22:20.098Z,100720.44
2023-04-02T20:24:51.254Z,100718.34
2023-04-02T20:27:21.859Z,100723.34
2023-04-02T20:29:52.790Z,100724.56
2023-04-02T20:32:54.361Z,100724.63
2023-04-02T20:35:26.518Z,100727.88
2023-04-02T20:37:57.454Z,100732.03
2023-04-02T20:40:28.056Z,100728.09
2023-04-02T20:43:07.130Z,100726.22
2023-04-02T20:45:38.299Z,100741.78
2023-04-02T20:48:08.988Z,100744.72
2023-04-02T20:50:39.326Z,100749.09
2023-04-02T20:53:10.199Z,100744.88
2023-04-02T20:55:40.646Z,100743.22
2023-04-02T20:58:10.910Z,100745.28
2023-04-02T21:00:43.469Z,100747.81
2023-04-02T21:03:14.865Z,100750.03
2023-04-02T21:05:49.206Z,100754.41
2023-04-02T21:08:22.128Z,100751.44
2023-04-02T21:10:53.584Z,100750.41
2023-04-02T21:13:24.379Z,100754.78
2023-04-02T21:15:55.080Z,100751.44
2023-04-02T21:18:25.476Z,100753.09
2023-04-02T21:21:05.662Z,100750.78
2023-04-02T21:23:36.697Z,100750.41
2023-04-02T21:26:11.964Z,100751.81
2023-04-02T21:28:43.348Z,100762.63
2023-04-02T21:31:27.892Z,100761.59
2023-04-02T21:33:59.881Z,100771.75
2023-04-02T21:36:36.356Z,100768.41
2023-04-02T21:39:09.036Z,100784.63
2023-04-02T21:41:44.285Z,100792.09
2023-04-02T21:44:20.326Z,100803.28
2023-04-02T21:46:53.087Z,100791.25
2023-04-02T21:49:27.252Z,100798.50
2023-04-02T21:51:58.279Z,100801.22
2023-04-02T21:54:28.900Z,100808.28
2023-04-02T21:57:01.896Z,100803.91
2023-04-02T21:59:32.477Z,100808.69
2023-04-02T22:02:03.348Z,100812.03
2023-04-02T22:04:34.227Z,100817.81
2023-04-02T22:07:04.566Z,100816.13
2023-04-02T22:09:43.419Z,100824.88
2023-04-02T22:12:14.687Z,100828.81
2023-04-02T22:14:44.812Z,100824.25
2023-04-02T22:17:15.463Z,100837.75
2023-04-02T22:19:46.602Z,100843.16
2023-04-02T22:22:17.405Z,100850.22
2023-04-02T22:24:48.017Z,100854.97
2023-04-02T22:27:18.464Z,100863.09
2023-04-02T22:29:49.450Z,100862.91
2023-04-02T22:32:20.410Z,100868.09
2023-04-02T22:34:50.694Z,100873.06
2023-04-02T22:37:21.032Z,100874.75
2023-04-02T22:39:52.043Z,100879.13
2023-04-02T22:42:22.835Z,100880.16
2023-04-02T22:44:56.378Z,100882.66
2023-04-02T22:47:27.112Z,100883.50
2023-04-02T22:49:57.951Z,100896.16
2023-04-02T22:52:28.281Z,100899.22
2023-04-02T22:54:58.972Z,100895.50
2023-04-02T22:57:29.335Z,100902.19
2023-04-02T23:00:00.004Z,100904.25
2023-04-02T23:02:30.290Z,100916.72
2023-04-02T23:05:01.028Z,100919.91
2023-04-02T23:07:32.179Z,100926.34
2023-04-02T23:10:04.610Z,100932.56
2023-04-02T23:12:41.304Z,100928.00
2023-04-02T23:15:12.658Z,100930.41
2023-04-02T23:17:43.325Z,100931.56
2023-04-02T23:20:14.979Z,100933.03
2023-04-02T23:22:45.114Z,100935.34
2023-04-02T23:25:19.412Z,100936.63
2023-04-02T23:27:51.107Z,100932.06
2023-04-02T23:30:22.571Z,100931.31
2023-04-02T23:32:56.339Z,100929.25
2023-04-02T23:35:27.304Z,100935.94
2023-04-02T23:37:57.625Z,100933.44
2023-04-02T23:40:28.573Z,100931.84
2023-04-02T23:42:59.243Z,100945.16
2023-04-02T23:45:33.068Z,100939.34
2023-04-02T23:48:04.063Z,100948.13
2023-04-02T23:50:34.917Z,100957.50
2023-04-02T23:53:05.608Z,100964.22
2023-04-02T23:55:37.130Z,100952.78
2023-04-02T23:58:07.623Z,100969.88
